createdAt,value
2022-11-26T00:01:31.227Z,5.05
2022-11-26T00:04:03.301Z,6.03
2022-11-26T00:06:35.880Z,6.53
2022-11-26T00:09:05.282Z,5.22
2022-11-26T00:11:39.458Z,7.18
2022-11-26T00:14:17.843Z,6.15
2022-11-26T00:16:48.838Z,5.97
2022-11-26T00:19:16.685Z,6.43
2022-11-26T00:21:44.548Z,6.22
2022-11-26T00:24:27.436Z,7.22
2022-11-26T00:27:00.225Z,6.22
2022-11-26T00:32:00.395Z,5.82
2022-11-26T00:34:33.913Z,5.75
2022-11-26T00:37:01.781Z,5.97
2022-11-26T00:39:32.280Z,5.63
2022-11-26T00:42:00.114Z,6.68
2022-11-26T00:44:28.060Z,6.05
2022-11-26T00:46:58.620Z,5.88
2022-11-26T00:49:28.634Z,5.72
2022-11-26T00:51:56.706Z,5.65
2022-11-26T00:54:24.828Z,5.70
2022-11-26T00:56:54.036Z,5.95
2022-11-26T00:59:23.217Z,5.60
2022-11-26T01:01:51.325Z,5.75
2022-11-26T01:04:19.314Z,6.07
2022-11-26T01:06:47.405Z,5.30
2022-11-26T01:09:21.381Z,5.38
2022-11-26T01:11:53.690Z,5.95
2022-11-26T01:14:22.901Z,6.10
2022-11-26T01:16:54.664Z,5.95
2022-11-26T01:19:22.578Z,5.93
2022-11-26T01:21:50.316Z,6.03
2022-11-26T01:24:18.066Z,5.70
2022-11-26T01:26:46.061Z,4.57
2022-11-26T01:29:21.122Z,5.32
2022-11-26T01:31:49.409Z,4.63
2022-11-26T01:34:18.879Z,5.55
2022-11-26T01:36:46.573Z,5.50
2022-11-26T01:39:19.814Z,5.27
2022-11-26T01:42:18.018Z,5.50
2022-11-26T01:44:45.700Z,4.88
2022-11-26T01:47:27.434Z,5.47
2022-11-26T01:50:31.048Z,4.93
2022-11-26T01:53:13.701Z,5.25
2022-11-26T01:55:46.852Z,5.97
2022-11-26T01:58:19.087Z,4.97
2022-11-26T02:00:49.144Z,5.47
2022-11-26T02:03:18.632Z,6.00
2022-11-26T02:05:56.658Z,5.10
2022-11-26T02:08:28.084Z,4.90
2022-11-26T02:10:58.787Z,4.38
2022-11-26T02:13:48.860Z,4.45
2022-11-26T02:16:29.527Z,4.27
2022-11-26T02:19:29.375Z,3.92
2022-11-26T02:22:07.302Z,4.13
2022-11-26T02:24:49.961Z,4.45
2022-11-26T02:27:37.092Z,3.80
2022-11-26T02:30:08.137Z,4.75
2022-11-26T02:32:52.665Z,4.63
2022-11-26T02:35:37.788Z,4.43
2022-11-26T02:38:09.989Z,4.07
2022-11-26T02:40:37.738Z,4.03
2022-11-26T02:43:05.422Z,4.05
2022-11-26T02:45:38.964Z,4.15
2022-11-26T02:48:11.770Z,4.70
2022-11-26T02:53:12.793Z,4.33
2022-11-26T02:55:45.167Z,4.65
2022-11-26T02:58:13.017Z,4.80
2022-11-26T03:00:44.667Z,5.73
2022-11-26T03:03:24.149Z,5.30
2022-11-26T03:05:56.150Z,5.77
2022-11-26T03:08:24.229Z,6.18
2022-11-26T03:10:52.038Z,7.03
2022-11-26T03:13:19.733Z,6.53
2022-11-26T03:15:47.632Z,7.00
2022-11-26T03:18:16.442Z,7.85
2022-11-26T03:20:44.204Z,7.82
2022-11-26T03:23:11.933Z,7.68
2022-11-26T03:25:39.920Z,7.32
2022-11-26T03:28:08.324Z,7.80
2022-11-26T03:30:36.253Z,7.50
2022-11-26T03:33:06.373Z,6.80
2022-11-26T03:35:34.095Z,6.50
2022-11-26T03:38:01.837Z,7.32
2022-11-26T03:40:32.424Z,6.72
2022-11-26T03:43:00.240Z,5.90
2022-11-26T03:45:27.996Z,6.32
2022-11-26T03:47:55.838Z,6.15
2022-11-26T03:50:23.541Z,6.03
2022-11-26T03:52:51.421Z,5.85
2022-11-26T03:55:19.707Z,6.05
2022-11-26T03:57:47.401Z,5.65
2022-11-26T04:00:15.468Z,5.55
2022-11-26T04:02:43.499Z,5.60
2022-11-26T04:05:12.376Z,4.93
2022-11-26T04:07:41.772Z,5.32
2022-11-26T04:10:12.066Z,5.20
2022-11-26T04:12:40.900Z,5.03
2022-11-26T04:15:09.251Z,6.07
2022-11-26T04:17:36.809Z,5.63
2022-11-26T04:20:05.077Z,5.93
2022-11-26T04:22:32.875Z,5.03
2022-11-26T04:25:00.738Z,5.28
2022-11-26T04:27:28.497Z,4.47
2022-11-26T04:29:56.451Z,4.90
2022-11-26T04:32:26.491Z,4.22
2022-11-26T04:34:54.194Z,4.20
2022-11-26T04:37:21.882Z,5.43
2022-11-26T04:39:49.742Z,4.90
2022-11-26T04:42:17.312Z,4.90
2022-11-26T04:44:45.596Z,5.55
2022-11-26T04:47:13.310Z,5.67
2022-11-26T04:49:41.059Z,6.38
2022-11-26T04:52:09.236Z,6.30
2022-11-26T04:54:37.396Z,6.60
2022-11-26T04:57:05.357Z,6.83
2022-11-26T04:59:33.037Z,6.93
2022-11-26T05:02:00.805Z,6.30
2022-11-26T05:04:29.313Z,6.60
2022-11-26T05:06:57.356Z,7.07
2022-11-26T05:09:25.233Z,7.28
2022-11-26T05:11:52.979Z,7.18
2022-11-26T05:14:20.733Z,7.10
2022-11-26T05:16:48.736Z,5.65
2022-11-26T05:19:16.648Z,6.30
2022-11-26T05:21:44.444Z,6.17
2022-11-26T05:24:12.157Z,6.20
2022-11-26T05:26:39.918Z,5.95
2022-11-26T05:29:07.668Z,6.32
2022-11-26T05:31:37.609Z,6.65
2022-11-26T05:34:05.523Z,6.40
2022-11-26T05:36:33.296Z,6.80
2022-11-26T05:39:01.067Z,6.50
2022-11-26T05:41:29.019Z,7.03
2022-11-26T05:43:57.948Z,7.15
2022-11-26T05:46:28.337Z,7.22
2022-11-26T05:48:58.136Z,7.03
2022-11-26T05:51:29.042Z,7.40
2022-11-26T05:53:56.572Z,7.00
2022-11-26T05:56:24.299Z,5.95
2022-11-26T05:58:54.203Z,6.00
2022-11-26T06:01:21.592Z,5.30
2022-11-26T06:03:49.325Z,5.55
2022-11-26T06:06:17.169Z,4.78
2022-11-26T06:08:44.749Z,5.10
2022-11-26T06:11:14.083Z,4.95
2022-11-26T06:13:41.871Z,5.47
2022-11-26T06:16:11.650Z,5.20
2022-11-26T06:18:41.017Z,6.03
2022-11-26T06:21:09.141Z,5.35
2022-11-26T06:23:51.657Z,5.53
2022-11-26T06:26:22.523Z,5.28
2022-11-26T06:28:50.342Z,5.40
2022-11-26T06:31:18.241Z,4.55
2022-11-26T06:33:45.914Z,4.00
2022-11-26T06:36:13.652Z,4.35
2022-11-26T06:38:41.629Z,3.93
2022-11-26T06:41:10.412Z,3.95
2022-11-26T06:43:38.376Z,3.75
2022-11-26T06:46:09.036Z,3.58
2022-11-26T06:48:37.642Z,4.00
2022-11-26T06:51:08.109Z,3.95
2022-11-26T06:53:36.019Z,4.20
2022-11-26T06:56:07.061Z,4.27
2022-11-26T06:58:34.910Z,4.07
2022-11-26T07:01:10.204Z,4.00
2022-11-26T07:03:39.935Z,4.38
2022-11-26T07:06:18.725Z,4.85
2022-11-26T07:08:49.485Z,5.15
2022-11-26T07:11:17.806Z,5.20
2022-11-26T07:13:47.366Z,5.38
2022-11-26T07:16:15.790Z,4.50
2022-11-26T07:18:44.076Z,5.40
2022-11-26T07:21:13.562Z,4.53
2022-11-26T07:23:42.021Z,4.97
2022-11-26T07:26:11.172Z,4.93
2022-11-26T07:28:39.090Z,5.10
2022-11-26T07:31:16.479Z,5.95
2022-11-26T07:33:45.268Z,4.85
2022-11-26T07:36:19.372Z,5.10
2022-11-26T07:38:47.511Z,5.03
2022-11-26T07:41:18.264Z,5.60
2022-11-26T07:43:46.811Z,5.60
2022-11-26T07:46:18.470Z,5.15
2022-11-26T07:48:49.993Z,5.40
2022-11-26T07:51:36.929Z,6.13
2022-11-26T07:54:06.941Z,5.75
2022-11-26T07:56:34.989Z,6.47
2022-11-26T07:59:02.941Z,6.35
2022-11-26T08:01:33.774Z,6.70
2022-11-26T08:04:01.874Z,6.28
2022-11-26T08:06:30.792Z,7.22
2022-11-26T08:09:02.375Z,6.93
2022-11-26T08:11:33.821Z,6.68
2022-11-26T08:14:04.304Z,7.57
2022-11-26T08:16:34.835Z,7.35
2022-11-26T08:19:07.926Z,6.93
2022-11-26T08:21:35.970Z,8.30
2022-11-26T08:24:05.064Z,7.15
2022-11-26T08:26:37.123Z,8.25
2022-11-26T08:29:07.713Z,7.80
2022-11-26T08:31:39.921Z,8.13
2022-11-26T08:34:14.560Z,8.25
2022-11-26T08:36:47.087Z,8.60
2022-11-26T08:39:17.738Z,8.55
2022-11-26T08:41:51.728Z,8.90
2022-11-26T08:44:23.769Z,7.78
2022-11-26T08:46:51.500Z,8.23
2022-11-26T08:49:25.053Z,7.93
2022-11-26T08:51:53.042Z,7.95
2022-11-26T08:54:20.869Z,8.00
2022-11-26T08:56:48.697Z,8.57
2022-11-26T08:59:17.626Z,9.02
2022-11-26T09:01:47.515Z,9.20
2022-11-26T09:04:15.475Z,8.75
2022-11-26T09:06:43.489Z,8.23
2022-11-26T09:09:14.748Z,8.27
2022-11-26T09:11:52.055Z,8.18
2022-11-26T09:14:23.156Z,8.20
2022-11-26T09:16:57.569Z,8.07
2022-11-26T09:19:25.893Z,7.70
2022-11-26T09:21:53.577Z,7.80
2022-11-26T09:24:21.683Z,8.10
2022-11-26T09:26:50.018Z,7.70
2022-11-26T09:29:24.291Z,7.47
2022-11-26T09:32:22.256Z,8.25
2022-11-26T09:34:43.426Z,7.90
2022-11-26T09:37:11.872Z,8.18
2022-11-26T09:39:39.566Z,8.02
2022-11-26T09:42:29.928Z,7.60
2022-11-26T09:45:22.669Z,7.43
2022-11-26T09:48:00.397Z,7.85
2022-11-26T09:50:32.211Z,7.40
2022-11-26T09:53:16.386Z,7.13
2022-11-26T09:55:48.005Z,7.90
2022-11-26T09:58:42.646Z,7.78
2022-11-26T10:01:21.207Z,7.85
2022-11-26T10:03:49.777Z,8.23
2022-11-26T10:06:43.510Z,7.88
2022-11-26T10:09:32.791Z,8.10
2022-11-26T10:12:26.992Z,8.30
2022-11-26T10:15:21.854Z,8.68
2022-11-26T10:18:18.902Z,8.52
2022-11-26T10:21:01.121Z,8.40
2022-11-26T10:23:51.106Z,8.70
2022-11-26T10:26:35.489Z,9.10
2022-11-26T10:29:26.150Z,7.88
2022-11-26T10:32:07.116Z,7.97
2022-11-26T10:34:58.257Z,8.40
2022-11-26T10:37:41.173Z,8.55
2022-11-26T10:40:30.387Z,8.77
2022-11-26T10:43:18.675Z,8.52
2022-11-26T10:45:51.720Z,8.68
2022-11-26T10:48:35.219Z,8.82
2022-11-26T10:51:15.366Z,8.70
2022-11-26T10:54:16.294Z,9.88
2022-11-26T10:56:54.360Z,9.98
2022-11-26T10:59:27.851Z,9.93
2022-11-26T11:02:02.552Z,10.25
2022-11-26T11:04:35.097Z,10.00
2022-11-26T11:07:11.692Z,9.55
2022-11-26T11:09:39.641Z,10.75
2022-11-26T11:12:18.174Z,10.10
2022-11-26T11:14:47.342Z,10.65
2022-11-26T11:17:31.936Z,10.45
2022-11-26T11:20:19.725Z,10.45
2022-11-26T11:23:01.549Z,10.45
2022-11-26T11:25:32.669Z,10.87
2022-11-26T11:28:11.973Z,11.02
2022-11-26T11:30:42.219Z,10.73
2022-11-26T11:33:20.854Z,10.50
2022-11-26T11:36:06.205Z,10.18
2022-11-26T11:38:51.960Z,10.98
2022-11-26T11:41:32.718Z,9.50
2022-11-26T11:44:08.824Z,9.43
2022-11-26T11:46:59.240Z,9.40
2022-11-26T11:49:49.365Z,9.35
2022-11-26T11:52:30.595Z,9.75
2022-11-26T11:55:33.154Z,9.80
2022-11-26T11:58:26.854Z,9.20
2022-11-26T12:01:07.216Z,8.98
2022-11-26T12:03:59.619Z,9.00
2022-11-26T12:06:45.684Z,9.48
2022-11-26T12:09:41.687Z,9.30
2022-11-26T12:12:25.210Z,9.35
2022-11-26T12:14:59.929Z,10.30
2022-11-26T12:17:41.488Z,10.87
2022-11-26T12:20:39.642Z,10.93
2022-11-26T12:23:28.190Z,9.85
2022-11-26T12:26:12.550Z,11.73
2022-11-26T12:28:54.009Z,12.43
2022-11-26T12:31:31.422Z,11.30
2022-11-26T12:34:23.494Z,12.27
2022-11-26T12:37:15.653Z,12.18
2022-11-26T12:39:54.101Z,8.93
2022-11-26T12:42:47.223Z,11.32
2022-11-26T12:45:41.732Z,10.80
2022-11-26T12:48:37.372Z,11.53
2022-11-26T12:51:33.759Z,10.33
2022-11-26T12:54:21.048Z,10.98
2022-11-26T12:57:02.324Z,9.97
2022-11-26T12:59:48.622Z,10.50
2022-11-26T13:02:26.308Z,10.50
2022-11-26T13:04:55.652Z,10.60
2022-11-26T13:07:46.352Z,11.43
2022-11-26T13:10:34.675Z,11.15
2022-11-26T13:13:22.107Z,11.35
2022-11-26T13:16:07.397Z,12.50
2022-11-26T13:18:39.588Z,10.07
2022-11-26T13:21:35.480Z,11.27
2022-11-26T13:24:42.610Z,10.38
2022-11-26T13:27:30.417Z,10.55
2022-11-26T13:30:17.678Z,11.30
2022-11-26T13:33:11.198Z,10.93
2022-11-26T13:36:16.015Z,10.70
2022-11-26T13:39:14.671Z,9.07
2022-11-26T13:42:06.803Z,11.57
2022-11-26T13:45:04.386Z,12.00
2022-11-26T13:47:55.708Z,11.05
2022-11-26T13:50:34.361Z,10.17
2022-11-26T13:53:12.880Z,10.83
2022-11-26T13:55:49.332Z,12.13
2022-11-26T13:58:29.691Z,10.97
2022-11-26T14:00:58.876Z,12.00
2022-11-26T14:03:46.619Z,11.50
2022-11-26T14:06:18.449Z,11.30
2022-11-26T14:08:50.677Z,11.53
2022-11-26T14:11:55.833Z,10.82
2022-11-26T14:14:36.072Z,11.87
2022-11-26T14:17:15.507Z,11.60
2022-11-26T14:20:01.135Z,12.53
2022-11-26T14:22:39.991Z,11.98
2022-11-26T14:25:14.233Z,12.57
2022-11-26T14:27:59.739Z,11.88
2022-11-26T14:30:28.144Z,12.45
2022-11-26T14:33:08.949Z,12.73
2022-11-26T14:35:39.163Z,12.70
2022-11-26T14:38:22.314Z,12.27
2022-11-26T14:40:58.433Z,12.93
2022-11-26T14:43:27.591Z,13.30
2022-11-26T14:46:14.217Z,13.53
2022-11-26T14:48:58.546Z,13.23
2022-11-26T14:51:28.291Z,13.93
2022-11-26T14:54:03.208Z,12.93
2022-11-26T14:56:43.977Z,13.40
2022-11-26T14:59:20.441Z,12.95
2022-11-26T15:01:48.343Z,13.52
2022-11-26T15:04:40.627Z,12.97
2022-11-26T15:07:12.058Z,13.07
2022-11-26T15:09:42.130Z,12.25
2022-11-26T15:12:17.424Z,12.98
2022-11-26T15:14:55.044Z,13.17
2022-11-26T15:17:31.985Z,11.43
2022-11-26T15:20:11.140Z,13.77
2022-11-26T15:22:50.433Z,12.40
2022-11-26T15:25:25.042Z,13.23
2022-11-26T15:28:01.173Z,12.80
2022-11-26T15:30:32.379Z,13.07
2022-11-26T15:33:05.907Z,13.33
2022-11-26T15:35:38.805Z,13.47
2022-11-26T15:38:21.153Z,13.40
2022-11-26T15:40:59.833Z,13.18
2022-11-26T15:43:45.857Z,13.25
2022-11-26T15:46:21.244Z,13.27
2022-11-26T15:48:56.642Z,13.60
2022-11-26T15:51:36.081Z,14.35
2022-11-26T15:54:06.785Z,15.10
2022-11-26T15:56:39.088Z,14.37
2022-11-26T15:59:16.281Z,13.38
2022-11-26T16:01:47.604Z,13.82
2022-11-26T16:04:39.435Z,12.93
2022-11-26T16:07:09.310Z,13.57
2022-11-26T16:09:39.826Z,13.13
2022-11-26T16:12:32.236Z,13.68
2022-11-26T16:15:15.942Z,13.65
2022-11-26T16:17:49.514Z,13.63
2022-11-26T16:20:30.656Z,13.32
2022-11-26T16:23:01.585Z,13.43
2022-11-26T16:25:35.876Z,13.55
2022-11-26T16:28:09.206Z,13.30
2022-11-26T16:30:39.329Z,14.30
2022-11-26T16:33:08.404Z,13.48
2022-11-26T16:35:46.502Z,13.65
2022-11-26T16:38:23.750Z,14.25
2022-11-26T16:40:52.250Z,13.88
2022-11-26T16:43:20.251Z,14.23
2022-11-26T16:45:58.177Z,13.52
2022-11-26T16:48:27.634Z,13.02
2022-11-26T16:51:01.326Z,13.48
2022-11-26T16:53:29.042Z,13.85
2022-11-26T16:55:59.805Z,13.40
2022-11-26T16:58:36.545Z,14.50
2022-11-26T17:01:05.038Z,13.75
2022-11-26T17:03:33.593Z,13.73
2022-11-26T17:06:03.837Z,14.15
2022-11-26T17:08:37.727Z,12.80
2022-11-26T17:11:05.547Z,14.93
2022-11-26T17:13:33.296Z,14.25
2022-11-26T17:16:03.226Z,15.43
2022-11-26T17:18:34.238Z,14.52
2022-11-26T17:21:04.532Z,15.52
2022-11-26T17:23:32.702Z,13.52
2022-11-26T17:26:01.114Z,13.63
2022-11-26T17:28:28.966Z,13.95
2022-11-26T17:30:57.268Z,14.00
2022-11-26T17:33:27.648Z,14.73
2022-11-26T17:36:00.303Z,13.48
2022-11-26T17:38:33.211Z,14.18
2022-11-26T17:41:09.618Z,15.68
2022-11-26T17:43:43.892Z,13.43
2022-11-26T17:46:21.449Z,13.45
2022-11-26T17:48:58.269Z,14.20
2022-11-26T17:51:29.838Z,14.88
2022-11-26T17:54:00.190Z,15.43
2022-11-26T17:56:28.019Z,13.90
2022-11-26T17:58:57.193Z,15.45
2022-11-26T18:01:25.485Z,14.95
2022-11-26T18:03:57.268Z,15.15
2022-11-26T18:06:52.100Z,16.15
2022-11-26T18:09:24.608Z,14.77
2022-11-26T18:11:58.279Z,14.10
2022-11-26T18:14:27.246Z,14.98
2022-11-26T18:16:57.881Z,13.97
2022-11-26T18:19:30.250Z,13.00
2022-11-26T18:22:01.652Z,14.20
2022-11-26T18:24:32.332Z,13.85
2022-11-26T18:27:00.146Z,14.48
2022-11-26T18:29:30.866Z,14.20
2022-11-26T18:32:01.012Z,13.05
2022-11-26T18:34:31.818Z,14.07
2022-11-26T18:37:00.540Z,13.00
2022-11-26T18:39:28.362Z,13.40
2022-11-26T18:42:29.534Z,13.85
2022-11-26T18:44:55.992Z,13.82
2022-11-26T18:47:23.828Z,13.70
2022-11-26T18:49:51.867Z,15.45
2022-11-26T18:52:19.779Z,14.32
2022-11-26T18:54:47.688Z,14.80
2022-11-26T18:57:18.106Z,12.48
2022-11-26T18:59:47.910Z,14.50
2022-11-26T19:02:22.219Z,14.65
2022-11-26T19:04:50.289Z,14.05
2022-11-26T19:07:18.115Z,14.30
2022-11-26T19:09:54.064Z,13.13
2022-11-26T19:12:22.948Z,15.15
2022-11-26T19:14:53.694Z,13.90
2022-11-26T19:17:27.310Z,13.95
2022-11-26T19:19:55.255Z,14.30
2022-11-26T19:22:30.063Z,15.27
2022-11-26T19:24:58.417Z,14.70
2022-11-26T19:27:26.272Z,15.10
2022-11-26T19:29:54.878Z,14.23
2022-11-26T19:32:24.514Z,14.88
2022-11-26T19:34:53.381Z,14.07
2022-11-26T19:37:21.327Z,13.43
2022-11-26T19:39:56.516Z,13.83
2022-11-26T19:42:29.266Z,13.73
2022-11-26T19:45:01.344Z,13.63
2022-11-26T19:47:35.400Z,14.00
2022-11-26T19:50:03.143Z,14.77
2022-11-26T19:52:31.002Z,15.63
2022-11-26T19:55:02.029Z,14.40
2022-11-26T19:57:34.228Z,14.73
2022-11-26T20:00:05.537Z,13.27
2022-11-26T20:02:33.422Z,14.47
2022-11-26T20:05:08.001Z,14.37
2022-11-26T20:07:37.191Z,13.40
2022-11-26T20:10:07.822Z,13.07
2022-11-26T20:12:35.583Z,12.75
2022-11-26T20:15:03.174Z,14.40
2022-11-26T20:17:34.132Z,13.70
2022-11-26T20:20:04.702Z,13.63
2022-11-26T20:22:36.020Z,14.00
2022-11-26T20:25:04.137Z,13.63
2022-11-26T20:27:31.846Z,13.33
2022-11-26T20:30:01.579Z,13.37
2022-11-26T20:32:30.329Z,13.90
2022-11-26T20:34:58.500Z,13.03
2022-11-26T20:37:26.432Z,13.00
2022-11-26T20:39:55.737Z,14.47
2022-11-26T20:42:23.593Z,13.77
2022-11-26T20:44:52.994Z,13.60
2022-11-26T20:47:22.287Z,13.13
2022-11-26T20:49:55.899Z,13.53
2022-11-26T20:52:27.458Z,13.73
2022-11-26T20:54:56.983Z,12.73
2022-11-26T20:57:30.519Z,12.00
2022-11-26T21:00:01.068Z,12.60
2022-11-26T21:02:28.954Z,12.23
2022-11-26T21:05:01.020Z,13.13
2022-11-26T21:07:31.643Z,13.60
2022-11-26T21:10:01.643Z,12.82
2022-11-26T21:12:29.849Z,13.30
2022-11-26T21:14:58.630Z,13.43
2022-11-26T21:17:31.774Z,12.90
2022-11-26T21:19:59.545Z,13.38
2022-11-26T21:22:35.394Z,12.93
2022-11-26T21:25:06.193Z,12.40
2022-11-26T21:27:35.248Z,12.30
2022-11-26T21:30:05.062Z,11.52
2022-11-26T21:32:35.126Z,11.55
2022-11-26T21:35:02.817Z,12.50
2022-11-26T21:37:31.354Z,12.33
2022-11-26T21:39:59.215Z,11.43
2022-11-26T21:42:28.127Z,12.47
2022-11-26T21:44:55.896Z,12.63
2022-11-26T21:47:28.337Z,12.77
2022-11-26T21:50:01.251Z,12.30
2022-11-26T21:52:31.177Z,12.57
2022-11-26T21:55:03.779Z,12.50
2022-11-26T21:57:36.276Z,13.70
2022-11-26T22:00:06.704Z,13.77
2022-11-26T22:02:34.778Z,13.83
2022-11-26T22:05:02.706Z,14.03
2022-11-26T22:07:33.790Z,14.47
2022-11-26T22:10:01.470Z,13.90
2022-11-26T22:12:33.607Z,12.90
2022-11-26T22:15:01.380Z,14.43
2022-11-26T22:17:31.408Z,13.15
2022-11-26T22:19:59.270Z,14.32
2022-11-26T22:22:28.896Z,13.45
2022-11-26T22:24:59.540Z,13.32
2022-11-26T22:27:27.266Z,13.88
2022-11-26T22:29:57.951Z,13.82
2022-11-26T22:32:29.507Z,14.35
2022-11-26T22:34:57.240Z,14.02
2022-11-26T22:37:25.148Z,12.20
2022-11-26T22:39:55.624Z,13.00
2022-11-26T22:42:25.810Z,12.90
2022-11-26T22:44:53.666Z,12.80
2022-11-26T22:47:24.059Z,13.43
2022-11-26T22:49:55.818Z,11.98
2022-11-26T22:52:23.682Z,12.38
2022-11-26T22:54:51.646Z,11.52
2022-11-26T22:57:25.487Z,12.85
2022-11-26T22:59:57.902Z,11.40
2022-11-26T23:02:27.744Z,12.05
2022-11-26T23:04:55.674Z,12.77
2022-11-26T23:07:25.757Z,12.05
2022-11-26T23:09:53.680Z,12.52
2022-11-26T23:12:21.485Z,11.75
2022-11-26T23:14:49.806Z,12.85
2022-11-26T23:17:20.502Z,12.57
2022-11-26T23:19:48.143Z,12.03
2022-11-26T23:22:17.113Z,13.82
2022-11-26T23:24:45.645Z,13.13
2022-11-26T23:27:13.635Z,12.38
2022-11-26T23:29:41.731Z,13.27
2022-11-26T23:32:09.900Z,12.85
2022-11-26T23:34:40.653Z,11.60
2022-11-26T23:37:08.607Z,12.10
2022-11-26T23:39:36.438Z,12.05
2022-11-26T23:42:04.225Z,13.00
2022-11-26T23:44:32.285Z,11.82
2022-11-26T23:47:06.250Z,12.77
2022-11-26T23:49:34.330Z,12.30
2022-11-26T23:52:02.123Z,13.15
2022-11-26T23:54:31.518Z,12.13
2022-11-26T23:56:59.423Z,10.70
2022-11-26T23:59:27.625Z,11.30
